sensor_id;sensor_type;location;lat;lon;timestamp;temperature;humidity
17632;DHT22;8934;51.194;17.150;2023-03-12T00:01:10;-1.00;99.90
17632;DHT22;8934;51.194;17.150;2023-03-12T00:03:58;-1.00;99.90
17632;DHT22;8934;51.194;17.150;2023-03-12T00:06:47;-0.90;99.90
17632;DHT22;8934;51.194;17.150;2023-03-12T00:09:35;-1.00;99.90
17632;DHT22;8934;51.194;17.150;2023-03-12T00:12:23;-0.90;99.90
17632;DHT22;8934;51.194;17.150;2023-03-12T00:15:12;-0.90;99.90
17632;DHT22;8934;51.194;17.150;2023-03-12T00:17:59;-0.90;99.90
17632;DHT22;8934;51.194;17.150;2023-03-12T00:20:52;-0.90;99.90
17632;DHT22;8934;51.194;17.150;2023-03-12T00:23:40;-0.90;99.90
17632;DHT22;8934;51.194;17.150;2023-03-12T00:26:27;-1.00;99.90
17632;DHT22;8934;51.194;17.150;2023-03-12T00:29:15;-1.00;99.90
17632;DHT22;8934;51.194;17.150;2023-03-12T00:32:05;-1.00;99.90
17632;DHT22;8934;51.194;17.150;2023-03-12T00:34:54;-1.00;99.90
17632;DHT22;8934;51.194;17.150;2023-03-12T00:37:42;-1.00;99.90
17632;DHT22;8934;51.194;17.150;2023-03-12T00:40:29;-0.90;99.90
17632;DHT22;8934;51.194;17.150;2023-03-12T00:43:17;-0.90;99.90
17632;DHT22;8934;51.194;17.150;2023-03-12T00:46:05;-1.00;99.90
17632;DHT22;8934;51.194;17.150;2023-03-12T00:48:54;-0.90;99.90
17632;DHT22;8934;51.194;17.150;2023-03-12T00:51:41;-0.90;99.90
17632;DHT22;8934;51.194;17.150;2023-03-12T00:54:29;-0.90;99.90
17632;DHT22;8934;51.194;17.150;2023-03-12T00:57:17;-0.90;99.90
17632;DHT22;8934;51.194;17.150;2023-03-12T01:00:06;-0.80;99.90
17632;DHT22;8934;51.194;17.150;2023-03-12T01:02:55;-0.70;99.90
17632;DHT22;8934;51.194;17.150;2023-03-12T01:05:44;-0.70;99.90
17632;DHT22;8934;51.194;17.150;2023-03-12T01:08:32;-0.70;99.90
17632;DHT22;8934;51.194;17.150;2023-03-12T01:11:21;-0.60;99.90
17632;DHT22;8934;51.194;17.150;2023-03-12T01:14:09;-0.70;99.90
17632;DHT22;8934;51.194;17.150;2023-03-12T01:16:56;-0.60;99.90
17632;DHT22;8934;51.194;17.150;2023-03-12T01:19:44;-0.60;99.90
17632;DHT22;8934;51.194;17.150;2023-03-12T01:22:34;-0.60;99.90
17632;DHT22;8934;51.194;17.150;2023-03-12T01:25:21;-0.60;99.90
17632;DHT22;8934;51.194;17.150;2023-03-12T01:28:09;-0.60;99.90
17632;DHT22;8934;51.194;17.150;2023-03-12T01:30:57;-0.60;99.90
17632;DHT22;8934;51.194;17.150;2023-03-12T01:33:47;-0.60;99.90
17632;DHT22;8934;51.194;17.150;2023-03-12T01:36:35;-0.60;99.90
17632;DHT22;8934;51.194;17.150;2023-03-12T01:39:24;-0.50;99.90
17632;DHT22;8934;51.194;17.150;2023-03-12T01:42:11;-0.60;99.90
17632;DHT22;8934;51.194;17.150;2023-03-12T01:45:00;-0.60;99.90
17632;DHT22;8934;51.194;17.150;2023-03-12T01:47:50;-0.60;99.90
17632;DHT22;8934;51.194;17.150;2023-03-12T01:50:38;-0.60;99.90
17632;DHT22;8934;51.194;17.150;2023-03-12T01:53:27;-0.60;99.90
17632;DHT22;8934;51.194;17.150;2023-03-12T01:56:17;-0.60;99.90
17632;DHT22;8934;51.194;17.150;2023-03-12T01:59:09;-0.70;99.90
17632;DHT22;8934;51.194;17.150;2023-03-12T02:01:58;-0.70;99.90
17632;DHT22;8934;51.194;17.150;2023-03-12T02:04:46;-0.70;99.90
17632;DHT22;8934;51.194;17.150;2023-03-12T02:07:34;-0.70;99.90
17632;DHT22;8934;51.194;17.150;2023-03-12T02:10:22;-0.70;99.90
17632;DHT22;8934;51.194;17.150;2023-03-12T02:13:11;-0.70;99.90
17632;DHT22;8934;51.194;17.150;2023-03-12T02:16:04;-0.80;99.90
17632;DHT22;8934;51.194;17.150;2023-03-12T02:18:54;-0.70;99.90
17632;DHT22;8934;51.194;17.150;2023-03-12T02:25:42;-0.50;99.90
17632;DHT22;8934;51.194;17.150;2023-03-12T02:28:32;-0.50;99.90
17632;DHT22;8934;51.194;17.150;2023-03-12T02:31:23;-0.50;99.90
17632;DHT22;8934;51.194;17.150;2023-03-12T02:34:12;-0.50;99.90
17632;DHT22;8934;51.194;17.150;2023-03-12T02:37:00;-0.50;99.90
17632;DHT22;8934;51.194;17.150;2023-03-12T02:39:52;-0.50;99.90
17632;DHT22;8934;51.194;17.150;2023-03-12T02:42:43;-0.50;99.90
17632;DHT22;8934;51.194;17.150;2023-03-12T02:45:33;-0.50;99.90
17632;DHT22;8934;51.194;17.150;2023-03-12T02:48:22;-0.40;99.90
17632;DHT22;8934;51.194;17.150;2023-03-12T02:51:10;-0.40;99.90
17632;DHT22;8934;51.194;17.150;2023-03-12T02:53:58;-0.40;99.90
17632;DHT22;8934;51.194;17.150;2023-03-12T02:56:46;-0.50;99.90
17632;DHT22;8934;51.194;17.150;2023-03-12T02:59:35;-0.50;99.90
17632;DHT22;8934;51.194;17.150;2023-03-12T03:02:25;-0.50;99.90
17632;DHT22;8934;51.194;17.150;2023-03-12T03:05:12;-0.40;99.90
17632;DHT22;8934;51.194;17.150;2023-03-12T03:08:00;-0.40;99.90
17632;DHT22;8934;51.194;17.150;2023-03-12T03:10:50;-0.40;99.90
17632;DHT22;8934;51.194;17.150;2023-03-12T03:13:38;-0.40;99.90
17632;DHT22;8934;51.194;17.150;2023-03-12T03:16:27;-0.30;99.90
17632;DHT22;8934;51.194;17.150;2023-03-12T03:19:16;-0.30;99.90
17632;DHT22;8934;51.194;17.150;2023-03-12T03:22:04;-0.30;99.90
17632;DHT22;8934;51.194;17.150;2023-03-12T03:24:52;-0.30;99.90
17632;DHT22;8934;51.194;17.150;2023-03-12T03:27:40;-0.30;99.90
17632;DHT22;8934;51.194;17.150;2023-03-12T03:30:28;-0.30;99.90
17632;DHT22;8934;51.194;17.150;2023-03-12T03:33:17;-0.30;99.90
17632;DHT22;8934;51.194;17.150;2023-03-12T03:36:06;-0.40;99.90
17632;DHT22;8934;51.194;17.150;2023-03-12T03:38:58;-0.40;99.90
17632;DHT22;8934;51.194;17.150;2023-03-12T03:41:48;-0.50;99.90
17632;DHT22;8934;51.194;17.150;2023-03-12T03:44:39;-0.40;99.90
17632;DHT22;8934;51.194;17.150;2023-03-12T03:47:27;-0.40;99.90
17632;DHT22;8934;51.194;17.150;2023-03-12T03:50:16;-0.40;99.90
17632;DHT22;8934;51.194;17.150;2023-03-12T03:53:04;-0.40;99.90
17632;DHT22;8934;51.194;17.150;2023-03-12T03:55:52;-0.40;99.90
17632;DHT22;8934;51.194;17.150;2023-03-12T03:58:39;-0.50;99.90
17632;DHT22;8934;51.194;17.150;2023-03-12T04:01:27;-0.60;99.90
17632;DHT22;8934;51.194;17.150;2023-03-12T04:04:15;-0.60;99.90
17632;DHT22;8934;51.194;17.150;2023-03-12T04:07:03;-0.60;99.90
17632;DHT22;8934;51.194;17.150;2023-03-12T04:09:51;-0.50;99.90
17632;DHT22;8934;51.194;17.150;2023-03-12T04:12:38;-0.50;99.90
17632;DHT22;8934;51.194;17.150;2023-03-12T04:15:26;-0.40;99.90
17632;DHT22;8934;51.194;17.150;2023-03-12T04:18:13;-0.30;99.90
17632;DHT22;8934;51.194;17.150;2023-03-12T04:21:02;-0.30;99.90
17632;DHT22;8934;51.194;17.150;2023-03-12T04:23:51;-0.20;99.90
17632;DHT22;8934;51.194;17.150;2023-03-12T04:26:42;-0.20;99.90
17632;DHT22;8934;51.194;17.150;2023-03-12T04:29:31;-0.10;99.90
17632;DHT22;8934;51.194;17.150;2023-03-12T04:32:19;-0.10;99.90
17632;DHT22;8934;51.194;17.150;2023-03-12T04:35:07;0.00;99.90
17632;DHT22;8934;51.194;17.150;2023-03-12T04:37:54;0.00;99.90
17632;DHT22;8934;51.194;17.150;2023-03-12T04:40:44;0.00;99.90
17632;DHT22;8934;51.194;17.150;2023-03-12T04:43:32;0.00;99.90
17632;DHT22;8934;51.194;17.150;2023-03-12T04:46:20;0.00;99.90
17632;DHT22;8934;51.194;17.150;2023-03-12T04:49:08;0.00;99.90
17632;DHT22;8934;51.194;17.150;2023-03-12T04:51:57;0.10;99.90
17632;DHT22;8934;51.194;17.150;2023-03-12T04:54:45;0.20;99.90
17632;DHT22;8934;51.194;17.150;2023-03-12T04:57:34;0.10;99.90
17632;DHT22;8934;51.194;17.150;2023-03-12T05:00:22;0.10;99.90
17632;DHT22;8934;51.194;17.150;2023-03-12T05:03:12;0.10;99.90
17632;DHT22;8934;51.194;17.150;2023-03-12T05:06:00;0.10;99.90
17632;DHT22;8934;51.194;17.150;2023-03-12T05:08:48;0.00;99.90
17632;DHT22;8934;51.194;17.150;2023-03-12T05:11:36;0.10;99.90
17632;DHT22;8934;51.194;17.150;2023-03-12T05:14:27;0.10;99.90
17632;DHT22;8934;51.194;17.150;2023-03-12T05:17:15;0.00;99.90
17632;DHT22;8934;51.194;17.150;2023-03-12T05:20:03;0.00;99.90
17632;DHT22;8934;51.194;17.150;2023-03-12T05:22:52;-0.10;99.90
17632;DHT22;8934;51.194;17.150;2023-03-12T05:25:40;-0.10;99.90
17632;DHT22;8934;51.194;17.150;2023-03-12T05:28:28;-0.10;99.90
17632;DHT22;8934;51.194;17.150;2023-03-12T05:31:20;-0.10;99.90
17632;DHT22;8934;51.194;17.150;2023-03-12T05:34:10;-0.20;99.90
17632;DHT22;8934;51.194;17.150;2023-03-12T05:37:01;-0.20;99.90
17632;DHT22;8934;51.194;17.150;2023-03-12T05:39:49;-0.10;99.90
17632;DHT22;8934;51.194;17.150;2023-03-12T05:42:37;-0.10;99.90
17632;DHT22;8934;51.194;17.150;2023-03-12T05:45:27;-0.10;99.90
17632;DHT22;8934;51.194;17.150;2023-03-12T05:48:18;-0.10;99.90
17632;DHT22;8934;51.194;17.150;2023-03-12T05:51:07;0.00;99.90
17632;DHT22;8934;51.194;17.150;2023-03-12T05:53:56;0.00;99.90
17632;DHT22;8934;51.194;17.150;2023-03-12T05:56:44;0.00;99.90
17632;DHT22;8934;51.194;17.150;2023-03-12T05:59:31;0.10;99.90
17632;DHT22;8934;51.194;17.150;2023-03-12T06:02:19;0.10;99.90
17632;DHT22;8934;51.194;17.150;2023-03-12T06:05:09;0.10;99.90
17632;DHT22;8934;51.194;17.150;2023-03-12T06:07:58;0.20;99.90
17632;DHT22;8934;51.194;17.150;2023-03-12T06:10:46;0.20;99.90
17632;DHT22;8934;51.194;17.150;2023-03-12T06:13:34;0.30;99.90
17632;DHT22;8934;51.194;17.150;2023-03-12T06:16:24;0.40;99.90
17632;DHT22;8934;51.194;17.150;2023-03-12T06:19:13;0.50;99.90
17632;DHT22;8934;51.194;17.150;2023-03-12T06:22:05;0.60;99.90
17632;DHT22;8934;51.194;17.150;2023-03-12T06:24:53;0.70;99.90
17632;DHT22;8934;51.194;17.150;2023-03-12T06:27:40;0.70;99.90
17632;DHT22;8934;51.194;17.150;2023-03-12T06:30:28;0.80;99.90
17632;DHT22;8934;51.194;17.150;2023-03-12T06:33:15;0.90;99.90
17632;DHT22;8934;51.194;17.150;2023-03-12T06:36:05;1.00;99.90
17632;DHT22;8934;51.194;17.150;2023-03-12T06:38:55;1.10;99.90
17632;DHT22;8934;51.194;17.150;2023-03-12T06:41:42;1.20;99.90
17632;DHT22;8934;51.194;17.150;2023-03-12T06:44:30;1.20;99.90
17632;DHT22;8934;51.194;17.150;2023-03-12T06:47:18;1.20;99.90
17632;DHT22;8934;51.194;17.150;2023-03-12T06:50:06;1.10;99.90
17632;DHT22;8934;51.194;17.150;2023-03-12T06:52:54;1.20;99.90
17632;DHT22;8934;51.194;17.150;2023-03-12T06:55:43;1.20;99.90
17632;DHT22;8934;51.194;17.150;2023-03-12T06:58:31;1.40;99.90
17632;DHT22;8934;51.194;17.150;2023-03-12T07:01:19;1.50;99.90
17632;DHT22;8934;51.194;17.150;2023-03-12T07:04:06;1.70;99.90
17632;DHT22;8934;51.194;17.150;2023-03-12T07:06:53;1.80;99.90
17632;DHT22;8934;51.194;17.150;2023-03-12T07:09:41;1.90;99.90
17632;DHT22;8934;51.194;17.150;2023-03-12T07:12:30;2.00;99.90
17632;DHT22;8934;51.194;17.150;2023-03-12T07:15:17;2.10;99.90
17632;DHT22;8934;51.194;17.150;2023-03-12T07:18:05;2.30;99.90
17632;DHT22;8934;51.194;17.150;2023-03-12T07:20:53;2.40;99.90
17632;DHT22;8934;51.194;17.150;2023-03-12T07:23:41;2.40;99.90
17632;DHT22;8934;51.194;17.150;2023-03-12T07:26:28;2.30;99.90
17632;DHT22;8934;51.194;17.150;2023-03-12T07:29:17;2.20;99.90
17632;DHT22;8934;51.194;17.150;2023-03-12T07:32:05;2.10;99.90
17632;DHT22;8934;51.194;17.150;2023-03-12T07:34:52;2.00;99.90
17632;DHT22;8934;51.194;17.150;2023-03-12T07:38:06;2.00;99.90
17632;DHT22;8934;51.194;17.150;2023-03-12T07:40:56;2.10;99.90
17632;DHT22;8934;51.194;17.150;2023-03-12T07:43:44;2.10;99.90
17632;DHT22;8934;51.194;17.150;2023-03-12T07:46:34;2.10;99.90
17632;DHT22;8934;51.194;17.150;2023-03-12T07:49:22;2.20;99.90
17632;DHT22;8934;51.194;17.150;2023-03-12T07:52:10;2.20;99.90
17632;DHT22;8934;51.194;17.150;2023-03-12T07:54:57;2.30;99.90
17632;DHT22;8934;51.194;17.150;2023-03-12T07:57:45;2.30;99.90
17632;DHT22;8934;51.194;17.150;2023-03-12T08:00:34;2.40;99.90
17632;DHT22;8934;51.194;17.150;2023-03-12T08:03:23;2.50;99.90
17632;DHT22;8934;51.194;17.150;2023-03-12T08:06:11;2.50;99.90
17632;DHT22;8934;51.194;17.150;2023-03-12T08:08:59;2.60;99.90
17632;DHT22;8934;51.194;17.150;2023-03-12T08:11:47;2.80;99.90
17632;DHT22;8934;51.194;17.150;2023-03-12T08:14:35;3.00;99.90
17632;DHT22;8934;51.194;17.150;2023-03-12T08:17:23;3.10;99.90
17632;DHT22;8934;51.194;17.150;2023-03-12T08:20:12;3.10;99.90
17632;DHT22;8934;51.194;17.150;2023-03-12T08:23:00;3.20;99.90
17632;DHT22;8934;51.194;17.150;2023-03-12T08:25:49;3.20;99.90
17632;DHT22;8934;51.194;17.150;2023-03-12T08:28:37;3.40;99.90
17632;DHT22;8934;51.194;17.150;2023-03-12T08:31:25;3.40;99.90
17632;DHT22;8934;51.194;17.150;2023-03-12T08:34:13;3.50;99.90
17632;DHT22;8934;51.194;17.150;2023-03-12T08:37:02;3.70;99.90
17632;DHT22;8934;51.194;17.150;2023-03-12T08:39:50;3.90;99.90
17632;DHT22;8934;51.194;17.150;2023-03-12T08:42:38;4.00;99.90
17632;DHT22;8934;51.194;17.150;2023-03-12T08:45:25;4.10;99.90
17632;DHT22;8934;51.194;17.150;2023-03-12T08:48:13;4.30;99.90
17632;DHT22;8934;51.194;17.150;2023-03-12T08:51:01;4.30;99.90
17632;DHT22;8934;51.194;17.150;2023-03-12T08:53:52;4.30;99.90
17632;DHT22;8934;51.194;17.150;2023-03-12T08:56:40;4.40;99.90
17632;DHT22;8934;51.194;17.150;2023-03-12T08:59:28;4.70;99.90
17632;DHT22;8934;51.194;17.150;2023-03-12T09:02:16;4.70;99.90
17632;DHT22;8934;51.194;17.150;2023-03-12T09:05:04;4.80;99.90
17632;DHT22;8934;51.194;17.150;2023-03-12T09:07:52;5.00;99.90
17632;DHT22;8934;51.194;17.150;2023-03-12T09:10:46;5.00;99.90
17632;DHT22;8934;51.194;17.150;2023-03-12T09:13:35;5.00;99.90
17632;DHT22;8934;51.194;17.150;2023-03-12T09:16:43;5.20;99.90
17632;DHT22;8934;51.194;17.150;2023-03-12T09:19:31;5.10;99.90
17632;DHT22;8934;51.194;17.150;2023-03-12T09:22:19;5.20;99.90
17632;DHT22;8934;51.194;17.150;2023-03-12T09:25:09;5.40;99.90
17632;DHT22;8934;51.194;17.150;2023-03-12T09:27:58;5.60;99.90
17632;DHT22;8934;51.194;17.150;2023-03-12T09:30:47;5.70;99.90
17632;DHT22;8934;51.194;17.150;2023-03-12T09:33:35;6.00;99.90
17632;DHT22;8934;51.194;17.150;2023-03-12T09:36:23;6.00;99.90
17632;DHT22;8934;51.194;17.150;2023-03-12T09:39:11;5.80;99.90
17632;DHT22;8934;51.194;17.150;2023-03-12T09:41:59;5.90;99.90
17632;DHT22;8934;51.194;17.150;2023-03-12T09:44:52;6.00;99.90
17632;DHT22;8934;51.194;17.150;2023-03-12T09:47:46;6.20;99.90
17632;DHT22;8934;51.194;17.150;2023-03-12T09:50:36;6.10;99.90
17632;DHT22;8934;51.194;17.150;2023-03-12T09:53:27;6.20;99.90
17632;DHT22;8934;51.194;17.150;2023-03-12T09:56:17;6.50;99.90
17632;DHT22;8934;51.194;17.150;2023-03-12T09:59:09;6.60;99.90
17632;DHT22;8934;51.194;17.150;2023-03-12T10:02:03;6.60;99.90
17632;DHT22;8934;51.194;17.150;2023-03-12T10:04:56;6.40;99.90
17632;DHT22;8934;51.194;17.150;2023-03-12T10:07:49;6.30;99.90
17632;DHT22;8934;51.194;17.150;2023-03-12T10:10:46;6.30;99.90
17632;DHT22;8934;51.194;17.150;2023-03-12T10:13:48;6.30;99.90
17632;DHT22;8934;51.194;17.150;2023-03-12T10:16:48;5.90;99.90
17632;DHT22;8934;51.194;17.150;2023-03-12T10:19:59;5.80;99.90
17632;DHT22;8934;51.194;17.150;2023-03-12T10:23:00;5.70;99.90
17632;DHT22;8934;51.194;17.150;2023-03-12T10:25:56;5.80;99.90
17632;DHT22;8934;51.194;17.150;2023-03-12T10:28:46;6.00;99.90
17632;DHT22;8934;51.194;17.150;2023-03-12T10:31:36;6.30;99.90
17632;DHT22;8934;51.194;17.150;2023-03-12T10:34:31;6.60;99.90
17632;DHT22;8934;51.194;17.150;2023-03-12T10:37:28;6.90;99.90
17632;DHT22;8934;51.194;17.150;2023-03-12T10:40:18;7.10;99.90
17632;DHT22;8934;51.194;17.150;2023-03-12T10:43:06;7.40;99.90
17632;DHT22;8934;51.194;17.150;2023-03-12T10:46:02;7.60;99.90
17632;DHT22;8934;51.194;17.150;2023-03-12T10:49:28;7.70;99.90
17632;DHT22;8934;51.194;17.150;2023-03-12T10:52:18;8.10;99.90
17632;DHT22;8934;51.194;17.150;2023-03-12T10:55:15;8.60;99.90
17632;DHT22;8934;51.194;17.150;2023-03-12T10:58:06;8.70;99.90
17632;DHT22;8934;51.194;17.150;2023-03-12T11:00:55;8.20;99.90
17632;DHT22;8934;51.194;17.150;2023-03-12T11:03:44;8.10;99.90
17632;DHT22;8934;51.194;17.150;2023-03-12T11:06:31;8.10;99.90
17632;DHT22;8934;51.194;17.150;2023-03-12T11:09:19;7.90;99.90
17632;DHT22;8934;51.194;17.150;2023-03-12T11:12:25;7.70;99.90
17632;DHT22;8934;51.194;17.150;2023-03-12T11:15:19;7.70;99.90
17632;DHT22;8934;51.194;17.150;2023-03-12T11:18:25;8.00;99.90
17632;DHT22;8934;51.194;17.150;2023-03-12T11:21:17;8.50;99.90
17632;DHT22;8934;51.194;17.150;2023-03-12T11:24:08;8.90;99.90
17632;DHT22;8934;51.194;17.150;2023-03-12T11:26:58;8.70;99.90
17632;DHT22;8934;51.194;17.150;2023-03-12T11:29:50;8.60;99.90
17632;DHT22;8934;51.194;17.150;2023-03-12T11:32:41;8.60;99.90
17632;DHT22;8934;51.194;17.150;2023-03-12T11:35:37;8.50;99.90
17632;DHT22;8934;51.194;17.150;2023-03-12T11:38:32;8.30;99.90
17632;DHT22;8934;51.194;17.150;2023-03-12T11:41:30;8.00;99.90
17632;DHT22;8934;51.194;17.150;2023-03-12T11:44:25;8.00;99.90
17632;DHT22;8934;51.194;17.150;2023-03-12T11:47:25;8.30;99.90
17632;DHT22;8934;51.194;17.150;2023-03-12T11:50:24;8.50;99.90
17632;DHT22;8934;51.194;17.150;2023-03-12T11:53:25;8.60;99.90
17632;DHT22;8934;51.194;17.150;2023-03-12T11:56:25;8.90;99.90
17632;DHT22;8934;51.194;17.150;2023-03-12T11:59:27;9.00;99.90
17632;DHT22;8934;51.194;17.150;2023-03-12T12:02:39;9.30;99.90
17632;DHT22;8934;51.194;17.150;2023-03-12T12:05:36;9.40;99.90
17632;DHT22;8934;51.194;17.150;2023-03-12T12:08:42;9.20;99.90
17632;DHT22;8934;51.194;17.150;2023-03-12T12:11:40;9.00;99.90
17632;DHT22;8934;51.194;17.150;2023-03-12T12:14:44;8.70;99.90
17632;DHT22;8934;51.194;17.150;2023-03-12T12:17:46;8.60;99.90
17632;DHT22;8934;51.194;17.150;2023-03-12T12:20:43;8.60;99.90
17632;DHT22;8934;51.194;17.150;2023-03-12T12:23:43;8.40;99.90
17632;DHT22;8934;51.194;17.150;2023-03-12T12:26:37;8.50;99.90
17632;DHT22;8934;51.194;17.150;2023-03-12T12:29:47;8.70;99.90
17632;DHT22;8934;51.194;17.150;2023-03-12T12:32:56;8.70;99.90
17632;DHT22;8934;51.194;17.150;2023-03-12T12:35:46;9.00;99.90
17632;DHT22;8934;51.194;17.150;2023-03-12T12:38:38;9.00;99.90
17632;DHT22;8934;51.194;17.150;2023-03-12T12:41:31;8.70;99.90
17632;DHT22;8934;51.194;17.150;2023-03-12T12:44:22;8.60;99.90
17632;DHT22;8934;51.194;17.150;2023-03-12T12:47:17;8.50;99.90
17632;DHT22;8934;51.194;17.150;2023-03-12T12:50:14;8.40;99.90
17632;DHT22;8934;51.194;17.150;2023-03-12T12:53:13;8.30;99.90
17632;DHT22;8934;51.194;17.150;2023-03-12T12:56:06;8.30;99.90
17632;DHT22;8934;51.194;17.150;2023-03-12T12:59:01;8.30;99.90
17632;DHT22;8934;51.194;17.150;2023-03-12T13:01:53;8.10;99.90
17632;DHT22;8934;51.194;17.150;2023-03-12T13:04:42;7.90;99.90
17632;DHT22;8934;51.194;17.150;2023-03-12T13:07:33;7.90;99.90
17632;DHT22;8934;51.194;17.150;2023-03-12T13:10:42;8.00;99.90
17632;DHT22;8934;51.194;17.150;2023-03-12T13:13:49;8.30;99.90
17632;DHT22;8934;51.194;17.150;2023-03-12T13:16:38;8.70;99.90
17632;DHT22;8934;51.194;17.150;2023-03-12T13:19:28;8.90;99.90
17632;DHT22;8934;51.194;17.150;2023-03-12T13:25:47;9.00;99.90
17632;DHT22;8934;51.194;17.150;2023-03-12T13:28:55;8.90;99.90
17632;DHT22;8934;51.194;17.150;2023-03-12T13:31:57;8.80;99.90
17632;DHT22;8934;51.194;17.150;2023-03-12T13:34:45;8.50;99.90
17632;DHT22;8934;51.194;17.150;2023-03-12T13:37:58;8.30;99.90
17632;DHT22;8934;51.194;17.150;2023-03-12T13:40:58;8.10;99.90
17632;DHT22;8934;51.194;17.150;2023-03-12T13:43:49;8.20;99.90
17632;DHT22;8934;51.194;17.150;2023-03-12T13:46:40;8.30;99.90
17632;DHT22;8934;51.194;17.150;2023-03-12T13:49:34;8.50;99.90
17632;DHT22;8934;51.194;17.150;2023-03-12T13:52:25;8.60;99.90
17632;DHT22;8934;51.194;17.150;2023-03-12T13:55:19;8.60;99.90
17632;DHT22;8934;51.194;17.150;2023-03-12T13:58:14;8.70;99.90
17632;DHT22;8934;51.194;17.150;2023-03-12T14:01:13;8.70;99.90
17632;DHT22;8934;51.194;17.150;2023-03-12T14:04:06;8.60;99.90
17632;DHT22;8934;51.194;17.150;2023-03-12T14:07:15;8.40;99.90
17632;DHT22;8934;51.194;17.150;2023-03-12T14:10:15;8.30;99.90
17632;DHT22;8934;51.194;17.150;2023-03-12T14:13:15;8.20;99.90
17632;DHT22;8934;51.194;17.150;2023-03-12T14:16:09;8.10;99.90
17632;DHT22;8934;51.194;17.150;2023-03-12T14:19:03;8.00;99.90
17632;DHT22;8934;51.194;17.150;2023-03-12T14:21:52;8.00;99.90
17632;DHT22;8934;51.194;17.150;2023-03-12T14:24:46;7.80;99.90
17632;DHT22;8934;51.194;17.150;2023-03-12T14:27:35;7.80;99.90
17632;DHT22;8934;51.194;17.150;2023-03-12T14:30:27;7.80;99.90
17632;DHT22;8934;51.194;17.150;2023-03-12T14:33:17;7.80;99.90
17632;DHT22;8934;51.194;17.150;2023-03-12T14:36:10;7.90;99.90
17632;DHT22;8934;51.194;17.150;2023-03-12T14:39:09;7.90;99.90
17632;DHT22;8934;51.194;17.150;2023-03-12T14:42:00;7.80;99.90
17632;DHT22;8934;51.194;17.150;2023-03-12T14:44:57;7.70;99.90
17632;DHT22;8934;51.194;17.150;2023-03-12T14:47:47;7.50;99.90
17632;DHT22;8934;51.194;17.150;2023-03-12T14:50:39;7.40;99.90
17632;DHT22;8934;51.194;17.150;2023-03-12T14:53:28;7.30;99.90
17632;DHT22;8934;51.194;17.150;2023-03-12T14:56:22;7.30;99.90
17632;DHT22;8934;51.194;17.150;2023-03-12T14:59:25;7.30;99.90
17632;DHT22;8934;51.194;17.150;2023-03-12T15:02:17;7.20;99.90
17632;DHT22;8934;51.194;17.150;2023-03-12T15:05:15;7.20;99.90
17632;DHT22;8934;51.194;17.150;2023-03-12T15:08:03;7.20;99.90
17632;DHT22;8934;51.194;17.150;2023-03-12T15:10:54;7.20;99.90
17632;DHT22;8934;51.194;17.150;2023-03-12T15:13:42;7.20;99.90
17632;DHT22;8934;51.194;17.150;2023-03-12T15:16:29;7.10;99.90
17632;DHT22;8934;51.194;17.150;2023-03-12T15:19:20;7.10;99.90
17632;DHT22;8934;51.194;17.150;2023-03-12T15:22:14;7.00;99.90
17632;DHT22;8934;51.194;17.150;2023-03-12T15:25:20;6.90;99.90
17632;DHT22;8934;51.194;17.150;2023-03-12T15:28:24;6.90;99.90
17632;DHT22;8934;51.194;17.150;2023-03-12T15:31:14;6.90;99.90
17632;DHT22;8934;51.194;17.150;2023-03-12T15:34:04;6.80;99.90
17632;DHT22;8934;51.194;17.150;2023-03-12T15:36:52;6.80;99.90
17632;DHT22;8934;51.194;17.150;2023-03-12T15:39:46;6.70;99.90
17632;DHT22;8934;51.194;17.150;2023-03-12T15:42:37;6.70;99.90
17632;DHT22;8934;51.194;17.150;2023-03-12T15:45:32;6.60;99.90
17632;DHT22;8934;51.194;17.150;2023-03-12T15:48:26;6.60;99.90
17632;DHT22;8934;51.194;17.150;2023-03-12T15:51:30;6.50;99.90
17632;DHT22;8934;51.194;17.150;2023-03-12T15:54:25;6.50;99.90
17632;DHT22;8934;51.194;17.150;2023-03-12T15:57:23;6.40;99.90
17632;DHT22;8934;51.194;17.150;2023-03-12T16:00:20;6.40;99.90
17632;DHT22;8934;51.194;17.150;2023-03-12T16:03:15;6.40;99.90
17632;DHT22;8934;51.194;17.150;2023-03-12T16:06:03;6.30;99.90
17632;DHT22;8934;51.194;17.150;2023-03-12T16:08:53;6.30;99.90
17632;DHT22;8934;51.194;17.150;2023-03-12T16:11:42;6.20;99.90
17632;DHT22;8934;51.194;17.150;2023-03-12T16:14:32;6.10;99.90
17632;DHT22;8934;51.194;17.150;2023-03-12T16:17:22;6.00;99.90
17632;DHT22;8934;51.194;17.150;2023-03-12T16:20:12;6.00;99.90
17632;DHT22;8934;51.194;17.150;2023-03-12T16:23:00;5.80;99.90
17632;DHT22;8934;51.194;17.150;2023-03-12T16:25:50;5.70;99.90
17632;DHT22;8934;51.194;17.150;2023-03-12T16:28:40;5.60;99.90
17632;DHT22;8934;51.194;17.150;2023-03-12T16:31:29;5.60;99.90
17632;DHT22;8934;51.194;17.150;2023-03-12T16:34:17;5.50;99.90
17632;DHT22;8934;51.194;17.150;2023-03-12T16:37:08;5.50;99.90
17632;DHT22;8934;51.194;17.150;2023-03-12T16:39:56;5.40;99.90
17632;DHT22;8934;51.194;17.150;2023-03-12T16:42:46;5.30;99.90
17632;DHT22;8934;51.194;17.150;2023-03-12T16:45:35;5.20;99.90
17632;DHT22;8934;51.194;17.150;2023-03-12T16:48:25;5.10;99.90
17632;DHT22;8934;51.194;17.150;2023-03-12T16:51:13;5.10;99.90
17632;DHT22;8934;51.194;17.150;2023-03-12T16:54:01;5.10;99.90
17632;DHT22;8934;51.194;17.150;2023-03-12T16:56:56;5.00;99.90
17632;DHT22;8934;51.194;17.150;2023-03-12T16:59:44;4.90;99.90
17632;DHT22;8934;51.194;17.150;2023-03-12T17:02:32;4.90;99.90
17632;DHT22;8934;51.194;17.150;2023-03-12T17:05:22;4.90;99.90
17632;DHT22;8934;51.194;17.150;2023-03-12T17:08:10;4.90;99.90
17632;DHT22;8934;51.194;17.150;2023-03-12T17:10:58;4.90;99.90
17632;DHT22;8934;51.194;17.150;2023-03-12T17:13:49;4.90;99.90
17632;DHT22;8934;51.194;17.150;2023-03-12T17:16:37;4.80;99.90
17632;DHT22;8934;51.194;17.150;2023-03-12T17:19:25;4.80;99.90
17632;DHT22;8934;51.194;17.150;2023-03-12T17:22:14;4.70;99.90
17632;DHT22;8934;51.194;17.150;2023-03-12T17:25:02;4.70;99.90
17632;DHT22;8934;51.194;17.150;2023-03-12T17:27:51;4.60;99.90
17632;DHT22;8934;51.194;17.150;2023-03-12T17:30:42;4.60;99.90
17632;DHT22;8934;51.194;17.150;2023-03-12T17:33:29;4.60;99.90
17632;DHT22;8934;51.194;17.150;2023-03-12T17:36:17;4.50;99.90
17632;DHT22;8934;51.194;17.150;2023-03-12T17:39:06;4.50;99.90
17632;DHT22;8934;51.194;17.150;2023-03-12T17:41:54;4.50;99.90
17632;DHT22;8934;51.194;17.150;2023-03-12T17:44:41;4.50;99.90
17632;DHT22;8934;51.194;17.150;2023-03-12T17:47:29;4.50;99.90
17632;DHT22;8934;51.194;17.150;2023-03-12T17:50:17;4.40;99.90
17632;DHT22;8934;51.194;17.150;2023-03-12T17:53:05;4.40;99.90
17632;DHT22;8934;51.194;17.150;2023-03-12T17:55:54;4.40;99.90
17632;DHT22;8934;51.194;17.150;2023-03-12T17:58:41;4.40;99.90
17632;DHT22;8934;51.194;17.150;2023-03-12T18:01:30;4.40;99.90
17632;DHT22;8934;51.194;17.150;2023-03-12T18:04:17;4.40;99.90
17632;DHT22;8934;51.194;17.150;2023-03-12T18:07:05;4.40;99.90
17632;DHT22;8934;51.194;17.150;2023-03-12T18:09:52;4.40;99.90
17632;DHT22;8934;51.194;17.150;2023-03-12T18:12:41;4.40;99.90
17632;DHT22;8934;51.194;17.150;2023-03-12T18:15:29;4.40;99.90
17632;DHT22;8934;51.194;17.150;2023-03-12T18:18:17;4.40;99.90
17632;DHT22;8934;51.194;17.150;2023-03-12T18:21:05;4.40;99.90